createdAt,value
2024-02-23T00:00:13.587Z,96597.00
2024-02-23T00:01:46.127Z,96614.00
2024-02-23T00:03:19.394Z,96606.00
2024-02-23T00:04:51.825Z,96607.00
2024-02-23T00:06:28.911Z,96618.00
2024-02-23T00:08:02.435Z,96634.00
2024-02-23T00:09:34.754Z,96622.00
2024-02-23T00:11:08.156Z,96639.00
2024-02-23T00:12:41.841Z,96642.00
2024-02-23T00:14:14.415Z,96638.00
2024-02-23T00:15:47.953Z,96638.00
2024-02-23T00:17:20.287Z,96636.00
2024-02-23T00:18:54.033Z,96644.00
2024-02-23T00:20:27.364Z,96660.00
2024-02-23T00:22:01.057Z,96648.00
2024-02-23T00:23:34.401Z,96650.00
2024-02-23T00:25:08.732Z,96654.00
2024-02-23T00:26:40.920Z,96663.00
2024-02-23T00:28:14.213Z,96668.00
2024-02-23T00:29:46.506Z,96673.00
2024-02-23T00:31:19.696Z,96667.00
2024-02-23T00:32:52.018Z,96688.00
2024-02-23T00:34:25.575Z,96692.00
2024-02-23T00:35:58.158Z,96708.00
2024-02-23T00:37:36.097Z,96694.00
2024-02-23T00:39:09.718Z,96703.00
2024-02-23T00:40:41.928Z,96724.00
2024-02-23T00:42:15.190Z,96712.00
2024-02-23T00:43:48.669Z,96718.00
2024-02-23T00:45:21.061Z,96728.00
2024-02-23T00:46:54.284Z,96743.00
2024-02-23T00:48:26.678Z,96743.00
2024-02-23T00:50:00.041Z,96756.00
2024-02-23T00:51:32.370Z,96739.00
2024-02-23T00:53:07.144Z,96747.00
2024-02-23T00:54:39.398Z,96753.00
2024-02-23T00:56:13.902Z,96767.00
2024-02-23T00:57:46.648Z,96761.00
2024-02-23T00:59:19.875Z,96772.00
2024-02-23T01:00:52.251Z,96761.00
2024-02-23T01:02:25.555Z,96776.00
2024-02-23T01:03:57.909Z,96762.00
2024-02-23T01:05:31.418Z,96780.00
2024-02-23T01:07:04.147Z,96778.00
2024-02-23T01:08:38.704Z,96783.00
2024-02-23T01:10:11.061Z,96777.00
2024-02-23T01:11:44.380Z,96788.00
2024-02-23T01:13:18.166Z,96788.00
2024-02-23T01:14:50.394Z,96797.00
2024-02-23T01:16:23.579Z,96795.00
2024-02-23T01:17:57.354Z,96800.00
2024-02-23T01:19:30.585Z,96800.00
2024-02-23T01:21:02.853Z,96797.00
2024-02-23T01:22:36.066Z,96804.00
2024-02-23T01:24:09.599Z,96800.00
2024-02-23T01:25:42.805Z,96810.00
2024-02-23T01:27:14.987Z,96816.00
2024-02-23T01:28:48.356Z,96810.00
2024-02-23T01:30:21.587Z,96804.00
2024-02-23T01:31:55.477Z,96805.00
2024-02-23T01:33:29.045Z,96806.00
2024-02-23T01:35:01.353Z,96810.00
2024-02-23T01:36:34.534Z,96812.00
2024-02-23T01:38:06.808Z,96811.00
2024-02-23T01:39:41.363Z,96824.00
2024-02-23T01:41:13.654Z,96813.00
2024-02-23T01:42:46.935Z,96807.00
2024-02-23T01:44:21.727Z,96813.00
2024-02-23T01:45:55.930Z,96806.00
2024-02-23T01:47:31.173Z,96813.00
2024-02-23T01:49:05.073Z,96825.00
2024-02-23T01:50:39.425Z,96829.00
2024-02-23T01:52:13.057Z,96818.00
2024-02-23T01:53:46.911Z,96825.00
2024-02-23T01:55:22.012Z,96817.00
2024-02-23T01:56:56.797Z,96828.00
2024-02-23T01:58:31.051Z,96836.00
2024-02-23T02:00:05.588Z,96833.00
2024-02-23T02:01:44.989Z,96831.00
2024-02-23T02:03:18.556Z,96827.00
2024-02-23T02:04:50.804Z,96836.00
2024-02-23T02:06:24.829Z,96838.00
2024-02-23T02:08:00.339Z,96841.00
2024-02-23T02:09:34.706Z,96841.00
2024-02-23T02:11:08.408Z,96849.00
2024-02-23T02:12:41.914Z,96844.00
2024-02-23T02:14:14.633Z,96852.00
2024-02-23T02:15:48.060Z,96842.00
2024-02-23T02:17:20.454Z,96848.00
2024-02-23T02:18:53.928Z,96842.00
2024-02-23T02:20:27.924Z,96850.00
2024-02-23T02:22:00.574Z,96854.00
2024-02-23T02:23:34.016Z,96865.00
2024-02-23T02:25:07.908Z,96850.00
2024-02-23T02:26:43.799Z,96843.00
2024-02-23T02:28:16.538Z,96854.00
2024-02-23T02:29:52.842Z,96850.00
2024-02-23T02:31:26.039Z,96862.00
2024-02-23T02:32:58.243Z,96852.00
2024-02-23T02:34:31.861Z,96859.00
2024-02-23T02:36:05.189Z,96870.00
2024-02-23T02:37:38.580Z,96868.00
2024-02-23T02:39:11.670Z,96863.00
2024-02-23T02:40:45.367Z,96866.00
2024-02-23T02:42:18.911Z,96868.00
2024-02-23T02:43:52.138Z,96862.00
2024-02-23T02:45:25.262Z,96875.00
2024-02-23T02:46:59.183Z,96869.00
2024-02-23T02:48:31.570Z,96876.00
2024-02-23T02:50:07.472Z,96885.00
2024-02-23T02:51:40.927Z,96891.00
2024-02-23T02:53:14.138Z,96893.00
2024-02-23T02:54:46.337Z,96892.00
2024-02-23T02:56:19.796Z,96900.00
2024-02-23T02:57:53.432Z,96896.00
2024-02-23T02:59:28.625Z,96896.00
2024-02-23T03:01:01.205Z,96899.00
2024-02-23T03:02:34.841Z,96903.00
2024-02-23T03:04:07.215Z,96900.00
2024-02-23T03:05:40.918Z,96905.00
2024-02-23T03:07:13.809Z,96915.00
2024-02-23T03:08:47.002Z,96908.00
2024-02-23T03:10:19.223Z,96905.00
2024-02-23T03:11:52.700Z,96915.00
2024-02-23T03:13:26.499Z,96919.00
2024-02-23T03:14:59.762Z,96912.00
2024-02-23T03:16:32.373Z,96906.00
2024-02-23T03:18:05.883Z,96919.00
2024-02-23T03:19:38.963Z,96927.00
2024-02-23T03:21:12.505Z,96922.00
2024-02-23T03:22:44.769Z,96909.00
2024-02-23T03:24:17.931Z,96920.00
2024-02-23T03:25:51.182Z,96929.00
2024-02-23T03:27:30.341Z,96929.00
2024-02-23T03:29:04.858Z,96926.00
2024-02-23T03:30:38.126Z,96921.00
2024-02-23T03:32:10.335Z,96933.00
2024-02-23T03:33:43.879Z,96931.00
2024-02-23T03:35:16.456Z,96931.00
2024-02-23T03:36:49.751Z,96931.00
2024-02-23T03:38:22.074Z,96931.00
2024-02-23T03:39:55.531Z,96937.00
2024-02-23T03:41:27.960Z,96935.00
2024-02-23T03:43:01.734Z,96938.00
2024-02-23T03:44:35.813Z,96935.00
2024-02-23T03:46:09.163Z,96927.00
2024-02-23T03:47:42.136Z,96940.00
2024-02-23T03:49:15.953Z,96934.00
2024-02-23T03:50:48.167Z,96927.00
2024-02-23T03:52:21.531Z,96935.00
2024-02-23T03:53:53.994Z,96935.00
2024-02-23T03:55:27.235Z,96934.00
2024-02-23T03:56:59.941Z,96932.00
2024-02-23T03:58:33.248Z,96937.00
2024-02-23T04:00:09.084Z,96940.00
2024-02-23T04:01:48.754Z,96940.00
2024-02-23T04:03:21.306Z,96952.00
2024-02-23T04:04:55.173Z,96942.00
2024-02-23T04:06:27.821Z,96946.00
2024-02-23T04:08:01.068Z,96956.00
2024-02-23T04:09:33.309Z,96954.00
2024-02-23T04:11:06.865Z,96951.00
2024-02-23T04:12:40.003Z,96963.00
2024-02-23T04:14:12.490Z,96963.00
2024-02-23T04:15:47.170Z,96961.00
2024-02-23T04:17:20.029Z,96955.00
2024-02-23T04:18:53.495Z,96967.00
2024-02-23T04:20:26.936Z,96969.00
2024-02-23T04:21:59.227Z,96969.00
2024-02-23T04:23:33.046Z,96963.00
2024-02-23T04:25:06.264Z,96983.00
2024-02-23T04:26:39.817Z,96979.00
2024-02-23T04:28:12.262Z,96976.00
2024-02-23T04:29:45.424Z,96970.00
2024-02-23T04:31:19.030Z,96968.00
2024-02-23T04:32:52.256Z,96986.00
2024-02-23T04:34:24.905Z,96978.00
2024-02-23T04:35:58.196Z,96980.00
2024-02-23T04:37:33.965Z,96988.00
2024-02-23T04:39:08.622Z,96972.00
2024-02-23T04:40:41.041Z,96983.00
2024-02-23T04:42:14.288Z,96984.00
2024-02-23T04:43:47.409Z,96984.00
2024-02-23T04:45:19.869Z,96988.00
2024-02-23T04:46:54.518Z,96998.00
2024-02-23T04:48:26.902Z,96981.00
2024-02-23T04:50:00.784Z,96984.00
2024-02-23T04:51:34.046Z,96987.00
2024-02-23T04:53:06.283Z,96993.00
2024-02-23T04:54:39.582Z,96986.00
2024-02-23T04:56:11.947Z,96999.00
2024-02-23T04:57:45.320Z,96987.00
2024-02-23T04:59:18.610Z,97004.00
2024-02-23T05:00:50.981Z,97002.00
2024-02-23T05:02:25.580Z,96983.00
2024-02-23T05:03:57.826Z,96986.00
2024-02-23T05:05:31.427Z,96988.00
2024-02-23T05:07:03.995Z,96987.00
2024-02-23T05:08:37.206Z,96990.00
2024-02-23T05:10:11.826Z,96983.00
2024-02-23T05:11:44.179Z,96981.00
2024-02-23T05:13:17.454Z,96989.00
2024-02-23T05:14:49.647Z,96989.00
2024-02-23T05:16:22.940Z,96981.00
2024-02-23T05:17:57.436Z,96981.00
2024-02-23T05:19:30.822Z,96987.00
2024-02-23T05:21:03.141Z,96984.00
2024-02-23T05:22:36.329Z,96980.00
2024-02-23T05:24:08.685Z,96989.00
2024-02-23T05:25:41.859Z,96983.00
2024-02-23T05:27:14.077Z,96974.00
2024-02-23T05:28:47.256Z,96973.00
2024-02-23T05:30:19.599Z,96964.00
2024-02-23T05:31:55.115Z,96982.00
2024-02-23T05:33:28.873Z,96971.00
2024-02-23T05:35:03.214Z,96984.00
2024-02-23T05:36:39.493Z,96977.00
2024-02-23T05:38:12.911Z,96977.00
2024-02-23T05:39:48.070Z,96987.00
2024-02-23T05:41:21.431Z,96980.00
2024-02-23T05:42:55.690Z,96986.00
2024-02-23T05:44:29.740Z,96979.00
2024-02-23T05:46:03.086Z,96984.00
2024-02-23T05:47:35.583Z,96973.00
2024-02-23T05:49:10.872Z,96978.00
2024-02-23T05:50:43.351Z,96981.00
2024-02-23T05:52:16.950Z,96978.00
2024-02-23T05:53:49.258Z,96980.00
2024-02-23T05:55:22.544Z,96962.00
2024-02-23T05:56:54.834Z,96974.00
2024-02-23T05:58:28.260Z,96973.00
2024-02-23T06:00:00.792Z,96976.00
2024-02-23T06:01:34.011Z,96977.00
2024-02-23T06:03:06.286Z,96962.00
2024-02-23T06:04:43.300Z,96978.00
2024-02-23T06:06:15.974Z,96976.00
2024-02-23T06:07:49.481Z,96966.00
2024-02-23T06:09:23.388Z,96959.00
2024-02-23T06:10:56.158Z,96960.00
2024-02-23T06:12:29.618Z,96960.00
2024-02-23T06:14:03.086Z,96968.00
2024-02-23T06:15:35.518Z,96968.00
2024-02-23T06:17:09.730Z,96971.00
2024-02-23T06:18:42.219Z,96980.00
2024-02-23T06:20:19.313Z,96971.00
2024-02-23T06:21:51.879Z,96972.00
2024-02-23T06:23:25.533Z,96965.00
2024-02-23T06:24:57.827Z,96968.00
2024-02-23T06:26:31.255Z,96962.00
2024-02-23T06:28:04.026Z,96961.00
2024-02-23T06:29:38.221Z,96965.00
2024-02-23T06:31:12.365Z,96967.00
2024-02-23T06:32:46.734Z,96965.00
2024-02-23T06:34:20.110Z,96975.00
2024-02-23T06:35:53.921Z,96969.00
2024-02-23T06:37:27.182Z,96960.00
2024-02-23T06:39:00.514Z,96964.00
2024-02-23T06:40:41.690Z,96965.00
2024-02-23T06:42:21.878Z,96971.00
2024-02-23T06:43:54.260Z,96972.00
2024-02-23T06:45:27.501Z,96976.00
2024-02-23T06:47:00.843Z,96975.00
2024-02-23T06:48:33.512Z,96980.00
2024-02-23T06:50:10.615Z,96991.00
2024-02-23T06:51:44.193Z,96979.00
2024-02-23T06:53:17.441Z,96983.00
2024-02-23T06:54:49.604Z,96984.00
2024-02-23T06:56:27.665Z,96984.00
2024-02-23T06:58:05.853Z,96984.00
2024-02-23T06:59:39.671Z,96993.00
2024-02-23T07:01:13.932Z,96984.00
2024-02-23T07:02:47.937Z,96984.00
2024-02-23T07:04:20.422Z,96991.00
2024-02-23T07:05:54.178Z,96977.00
2024-02-23T07:07:29.694Z,96981.00
2024-02-23T07:09:04.599Z,96993.00
2024-02-23T07:10:37.789Z,96991.00
2024-02-23T07:12:14.594Z,96978.00
2024-02-23T07:13:49.861Z,96980.00
2024-02-23T07:15:23.247Z,96983.00
2024-02-23T07:16:55.554Z,96980.00
2024-02-23T07:18:31.831Z,96989.00
2024-02-23T07:20:06.897Z,96990.00
2024-02-23T07:21:43.716Z,96990.00
2024-02-23T07:23:18.827Z,96997.00
2024-02-23T07:24:51.200Z,97000.00
2024-02-23T07:26:24.432Z,96990.00
2024-02-23T07:27:57.472Z,97005.00
2024-02-23T07:29:31.456Z,96987.00
2024-02-23T07:31:04.441Z,96986.00
2024-02-23T07:32:37.808Z,96998.00
2024-02-23T07:34:10.472Z,96982.00
2024-02-23T07:35:43.953Z,96977.00
2024-02-23T07:37:16.352Z,96983.00
2024-02-23T07:38:51.102Z,96980.00
2024-02-23T07:40:23.287Z,96977.00
2024-02-23T07:41:56.426Z,96974.00
2024-02-23T07:43:30.527Z,96985.00
2024-02-23T07:45:05.307Z,96982.00
2024-02-23T07:46:38.008Z,96987.00
2024-02-23T07:48:11.225Z,96985.00
2024-02-23T07:49:43.881Z,96982.00
2024-02-23T07:51:17.174Z,96993.00
2024-02-23T07:52:49.518Z,96989.00
2024-02-23T07:54:24.016Z,96998.00
2024-02-23T07:55:56.488Z,97001.00
2024-02-23T07:57:29.706Z,96992.00
2024-02-23T07:59:04.191Z,96993.00
2024-02-23T08:00:39.455Z,97004.00
2024-02-23T08:02:11.933Z,97001.00
2024-02-23T08:03:45.532Z,97006.00
2024-02-23T08:05:18.635Z,97003.00
2024-02-23T08:06:52.221Z,97001.00
2024-02-23T08:08:26.708Z,97002.00
2024-02-23T08:10:01.451Z,97003.00
2024-02-23T08:11:37.044Z,97002.00
2024-02-23T08:13:11.830Z,97007.00
2024-02-23T08:14:46.796Z,97008.00
2024-02-23T08:16:19.068Z,96998.00
2024-02-23T08:17:52.375Z,97014.00
2024-02-23T08:19:25.232Z,97024.00
2024-02-23T08:20:58.721Z,97018.00
2024-02-23T08:22:31.171Z,97021.00
2024-02-23T08:24:04.853Z,97011.00
2024-02-23T08:25:40.134Z,97008.00
2024-02-23T08:27:12.501Z,97025.00
2024-02-23T08:28:45.892Z,97032.00
2024-02-23T08:30:18.793Z,97020.00
2024-02-23T08:31:52.393Z,97021.00
2024-02-23T08:33:24.785Z,97021.00
2024-02-23T08:35:01.167Z,97023.00
2024-02-23T08:36:33.619Z,97020.00
2024-02-23T08:38:07.049Z,97028.00
2024-02-23T08:39:39.390Z,97028.00
2024-02-23T08:41:13.998Z,97019.00
2024-02-23T08:42:47.822Z,97020.00
2024-02-23T08:44:21.189Z,97023.00
2024-02-23T08:45:53.538Z,97027.00
2024-02-23T08:47:29.101Z,97035.00
2024-02-23T08:49:01.587Z,97029.00
2024-02-23T08:50:35.644Z,97029.00
2024-02-23T08:52:09.061Z,97030.00
2024-02-23T08:53:42.589Z,97031.00
2024-02-23T08:55:14.912Z,97036.00
2024-02-23T08:56:49.497Z,97032.00
2024-02-23T08:58:21.840Z,97043.00
2024-02-23T08:59:57.864Z,97040.00
2024-02-23T09:01:30.280Z,97037.00
2024-02-23T09:03:03.441Z,97043.00
2024-02-23T09:04:35.703Z,97035.00
2024-02-23T09:06:09.590Z,97037.00
2024-02-23T09:07:42.128Z,97026.00
2024-02-23T09:09:15.857Z,97030.00
2024-02-23T09:10:48.141Z,97037.00
2024-02-23T09:12:22.805Z,97029.00
2024-02-23T09:13:55.222Z,97029.00
2024-02-23T09:15:28.406Z,97025.00
2024-02-23T09:17:00.679Z,97025.00
2024-02-23T09:18:33.882Z,97035.00
2024-02-23T09:20:08.396Z,97028.00
2024-02-23T09:21:41.776Z,97032.00
2024-02-23T09:23:15.131Z,97034.00
2024-02-23T09:24:47.681Z,97042.00
2024-02-23T09:26:20.928Z,97044.00
2024-02-23T09:27:58.749Z,97046.00
2024-02-23T09:29:32.182Z,97045.00
2024-02-23T09:31:05.666Z,97048.00
2024-02-23T09:32:39.138Z,97062.00
2024-02-23T09:34:12.306Z,97051.00
2024-02-23T09:35:45.734Z,97054.00
2024-02-23T09:37:18.095Z,97047.00
2024-02-23T09:38:51.977Z,97044.00
2024-02-23T09:40:24.687Z,97042.00
2024-02-23T09:41:58.821Z,97041.00
2024-02-23T09:43:35.053Z,97043.00
2024-02-23T09:45:12.904Z,97053.00
2024-02-23T09:46:45.576Z,97056.00
2024-02-23T09:48:21.469Z,97065.00
2024-02-23T09:49:55.384Z,97045.00
2024-02-23T09:51:29.048Z,97058.00
2024-02-23T09:53:05.652Z,97056.00
2024-02-23T09:54:40.900Z,97057.00
2024-02-23T09:56:13.328Z,97066.00
2024-02-23T09:57:49.276Z,97053.00
2024-02-23T09:59:23.052Z,97060.00
2024-02-23T10:00:59.123Z,97059.00
2024-02-23T10:02:32.658Z,97058.00
2024-02-23T10:04:08.980Z,97057.00
2024-02-23T10:05:42.767Z,97054.00
2024-02-23T10:07:17.884Z,97051.00
2024-02-23T10:08:50.217Z,97066.00
2024-02-23T10:10:27.708Z,97066.00
2024-02-23T10:12:00.182Z,97061.00
2024-02-23T10:13:33.524Z,97070.00
2024-02-23T10:15:09.380Z,97062.00
2024-02-23T10:16:41.628Z,97063.00
2024-02-23T10:18:15.950Z,97066.00
2024-02-23T10:19:48.755Z,97068.00
2024-02-23T10:21:21.994Z,97071.00
2024-02-23T10:22:54.984Z,97064.00
2024-02-23T10:24:29.044Z,97060.00
2024-02-23T10:26:01.402Z,97068.00
2024-02-23T10:27:34.561Z,97057.00
2024-02-23T10:29:10.539Z,97057.00
2024-02-23T10:30:46.009Z,97065.00
2024-02-23T10:32:22.332Z,97069.00
2024-02-23T10:35:36.254Z,97062.00
2024-02-23T10:37:11.094Z,97080.00
2024-02-23T10:38:47.849Z,97066.00
2024-02-23T10:40:23.547Z,97068.00
2024-02-23T10:42:01.128Z,97084.00
2024-02-23T10:43:43.145Z,97066.00
2024-02-23T10:45:18.764Z,97080.00
2024-02-23T10:46:55.168Z,97078.00
2024-02-23T10:48:29.748Z,97070.00
2024-02-23T10:50:05.878Z,97071.00
2024-02-23T10:51:41.962Z,97073.00
2024-02-23T10:53:16.936Z,97076.00
2024-02-23T10:54:50.126Z,97071.00
2024-02-23T10:56:25.572Z,97074.00
2024-02-23T10:57:59.823Z,97066.00
2024-02-23T10:59:33.485Z,97068.00
2024-02-23T11:01:10.041Z,97056.00
2024-02-23T11:02:51.277Z,97064.00
2024-02-23T11:04:26.250Z,97066.00
2024-02-23T11:05:58.757Z,97064.00
2024-02-23T11:07:32.323Z,97067.00
2024-02-23T11:09:09.122Z,97066.00
2024-02-23T11:10:45.528Z,97057.00
2024-02-23T11:12:25.924Z,97068.00
2024-02-23T11:13:59.362Z,97064.00
2024-02-23T11:15:34.772Z,97057.00
2024-02-23T11:17:08.170Z,97057.00
2024-02-23T11:18:42.697Z,97069.00
2024-02-23T11:20:29.722Z,97055.00
2024-02-23T11:22:04.489Z,97056.00
2024-02-23T11:23:46.094Z,97068.00
2024-02-23T11:25:18.729Z,97062.00
2024-02-23T11:26:52.979Z,97060.00
2024-02-23T11:28:26.152Z,97059.00
2024-02-23T11:30:06.744Z,97065.00
2024-02-23T11:31:47.474Z,97063.00
2024-02-23T11:33:28.639Z,97064.00
2024-02-23T11:35:06.156Z,97066.00
2024-02-23T11:36:40.628Z,97063.00
2024-02-23T11:38:15.086Z,97059.00
2024-02-23T11:39:50.009Z,97062.00
2024-02-23T11:41:24.759Z,97050.00
2024-02-23T11:42:58.588Z,97050.00
2024-02-23T11:44:31.231Z,97049.00
2024-02-23T11:46:05.447Z,97050.00
2024-02-23T11:47:39.991Z,97054.00
2024-02-23T11:49:12.883Z,97046.00
2024-02-23T11:50:49.993Z,97048.00
2024-02-23T11:52:22.990Z,97050.00
2024-02-23T11:53:59.303Z,97058.00
2024-02-23T11:55:33.199Z,97051.00
2024-02-23T11:57:06.938Z,97049.00
2024-02-23T11:58:39.636Z,97054.00
2024-02-23T12:00:14.357Z,97042.00
2024-02-23T12:01:49.269Z,97048.00
2024-02-23T12:03:21.568Z,97043.00
2024-02-23T12:04:55.112Z,97048.00
2024-02-23T12:06:34.265Z,97048.00
2024-02-23T12:08:07.126Z,97046.00
2024-02-23T12:09:42.417Z,97042.00
2024-02-23T12:11:15.931Z,97038.00
2024-02-23T12:12:50.669Z,97043.00
2024-02-23T12:14:23.268Z,97046.00
2024-02-23T12:15:58.090Z,97044.00
2024-02-23T12:17:30.768Z,97042.00
2024-02-23T12:19:04.834Z,97041.00
2024-02-23T12:20:37.763Z,97043.00
2024-02-23T12:22:13.308Z,97046.00
2024-02-23T12:23:49.295Z,97049.00
2024-02-23T12:25:22.739Z,97043.00
2024-02-23T12:26:57.620Z,97048.00
2024-02-23T12:28:30.640Z,97049.00
2024-02-23T12:30:04.628Z,97059.00
2024-02-23T12:31:37.489Z,97051.00
2024-02-23T12:33:12.297Z,97048.00
2024-02-23T12:34:45.281Z,97050.00
2024-02-23T12:36:19.622Z,97057.00
2024-02-23T12:37:53.429Z,97052.00
2024-02-23T12:39:27.640Z,97052.00
2024-02-23T12:41:01.825Z,97052.00
2024-02-23T12:42:35.477Z,97049.00
2024-02-23T12:44:08.920Z,97052.00
2024-02-23T12:45:41.496Z,97048.00
2024-02-23T12:47:14.929Z,97059.00
2024-02-23T12:48:47.629Z,97058.00
2024-02-23T12:50:21.105Z,97055.00
2024-02-23T12:51:53.751Z,97048.00
2024-02-23T12:53:40.124Z,97048.00
2024-02-23T12:55:13.701Z,97052.00
2024-02-23T12:56:47.895Z,97046.00
2024-02-23T12:58:20.284Z,97053.00
2024-02-23T12:59:53.596Z,97051.00
2024-02-23T13:01:25.967Z,97055.00
2024-02-23T13:02:59.262Z,97050.00
2024-02-23T13:04:32.698Z,97054.00
2024-02-23T13:06:05.793Z,97050.00
2024-02-23T13:07:39.945Z,97054.00
2024-02-23T13:09:15.719Z,97058.00
2024-02-23T13:10:48.381Z,97055.00
2024-02-23T13:12:21.885Z,97051.00
2024-02-23T13:13:54.246Z,97056.00
2024-02-23T13:15:27.737Z,97045.00
2024-02-23T13:17:00.125Z,97063.00
2024-02-23T13:18:33.383Z,97059.00
2024-02-23T13:20:11.696Z,97054.00
2024-02-23T13:21:45.472Z,97056.00
2024-02-23T13:23:18.390Z,97058.00
2024-02-23T13:24:53.197Z,97056.00
2024-02-23T13:26:25.492Z,97055.00
2024-02-23T13:27:58.896Z,97057.00
2024-02-23T13:29:32.589Z,97059.00
2024-02-23T13:31:04.980Z,97063.00
2024-02-23T13:32:38.239Z,97053.00
2024-02-23T13:34:11.151Z,97060.00
2024-02-23T13:35:45.034Z,97061.00
2024-02-23T13:37:17.301Z,97061.00
2024-02-23T13:38:52.120Z,97060.00
2024-02-23T13:40:26.462Z,97048.00
2024-02-23T13:42:00.368Z,97057.00
2024-02-23T13:43:34.890Z,97057.00
2024-02-23T13:45:10.544Z,97050.00
2024-02-23T13:46:47.868Z,97044.00
2024-02-23T13:48:21.099Z,97071.00
2024-02-23T13:49:54.836Z,97051.00
2024-02-23T13:51:27.386Z,97056.00
2024-02-23T13:53:01.177Z,97043.00
2024-02-23T13:54:33.779Z,97055.00
2024-02-23T13:56:08.859Z,97057.00
2024-02-23T13:57:41.445Z,97054.00
2024-02-23T13:59:15.057Z,97056.00
2024-02-23T14:00:47.940Z,97054.00
2024-02-23T14:02:31.282Z,97066.00
2024-02-23T14:04:10.056Z,97064.00
2024-02-23T14:05:45.719Z,97064.00
2024-02-23T14:07:23.650Z,97075.00
2024-02-23T14:08:56.391Z,97086.00
2024-02-23T14:10:30.094Z,97087.00
2024-02-23T14:12:04.585Z,97083.00
2024-02-23T14:13:38.407Z,97086.00
2024-02-23T14:15:11.801Z,97067.00
2024-02-23T14:16:45.173Z,97076.00
2024-02-23T14:18:20.715Z,97078.00
2024-02-23T14:19:56.998Z,97081.00
2024-02-23T14:21:29.911Z,97077.00
2024-02-23T14:23:03.558Z,97074.00
2024-02-23T14:24:49.551Z,97073.00
2024-02-23T14:26:23.157Z,97062.00
2024-02-23T14:27:57.270Z,97075.00
2024-02-23T14:29:30.577Z,97070.00
2024-02-23T14:31:02.923Z,97068.00
2024-02-23T14:33:28.442Z,97082.00
2024-02-23T14:35:02.842Z,97076.00
2024-02-23T14:36:35.954Z,97085.00
2024-02-23T14:38:09.363Z,97087.00
2024-02-23T14:43:16.156Z,97091.00
2024-02-23T14:44:51.090Z,97095.00
2024-02-23T14:46:24.354Z,97092.00
2024-02-23T14:47:56.790Z,97088.00
2024-02-23T14:49:29.990Z,97085.00
2024-02-23T14:51:04.973Z,97089.00
2024-02-23T14:52:37.620Z,97087.00
2024-02-23T14:54:11.808Z,97089.00
2024-02-23T14:55:45.266Z,97084.00
2024-02-23T14:57:18.446Z,97080.00
2024-02-23T14:58:51.995Z,97086.00
2024-02-23T15:00:25.347Z,97091.00
2024-02-23T15:01:58.231Z,97093.00
2024-02-23T15:03:32.363Z,97089.00
2024-02-23T15:05:07.115Z,97087.00
2024-02-23T15:06:40.233Z,97088.00
2024-02-23T15:08:13.379Z,97097.00
2024-02-23T15:09:45.675Z,97085.00
2024-02-23T15:11:19.144Z,97095.00
2024-02-23T15:12:51.606Z,97097.00
2024-02-23T15:14:26.089Z,97089.00
2024-02-23T15:16:00.327Z,97080.00
2024-02-23T15:17:33.232Z,97103.00
2024-02-23T15:19:08.717Z,97096.00
2024-02-23T15:20:42.378Z,97093.00
2024-02-23T15:22:15.857Z,97093.00
2024-02-23T15:23:48.370Z,97088.00
2024-02-23T15:25:22.116Z,97086.00
2024-02-23T15:26:55.487Z,97094.00
2024-02-23T15:28:28.048Z,97091.00
2024-02-23T15:30:02.768Z,97084.00
2024-02-23T15:31:36.296Z,97090.00
2024-02-23T15:33:10.584Z,97088.00
2024-02-23T15:34:43.505Z,97088.00
2024-02-23T15:36:16.918Z,97083.00
2024-02-23T15:37:49.385Z,97093.00
2024-02-23T15:39:23.173Z,97083.00
2024-02-23T15:40:55.364Z,97087.00
2024-02-23T15:42:28.717Z,97086.00
2024-02-23T15:44:00.951Z,97086.00
2024-02-23T15:45:35.537Z,97084.00
2024-02-23T15:47:08.347Z,97080.00
2024-02-23T15:48:41.898Z,97087.00
2024-02-23T15:50:29.833Z,97093.00
2024-02-23T15:52:08.353Z,97095.00
2024-02-23T15:53:42.228Z,97091.00
2024-02-23T15:55:16.119Z,97101.00
2024-02-23T15:56:50.635Z,97100.00
2024-02-23T15:58:23.528Z,97107.00
2024-02-23T16:00:02.925Z,97104.00
2024-02-23T16:01:40.047Z,97113.00
2024-02-23T16:03:12.313Z,97109.00
2024-02-23T16:04:45.626Z,97113.00
2024-02-23T16:06:17.959Z,97113.00
2024-02-23T16:07:51.130Z,97107.00
2024-02-23T16:09:23.966Z,97120.00
2024-02-23T16:10:57.279Z,97118.00
2024-02-23T16:12:29.712Z,97126.00
2024-02-23T16:14:04.116Z,97113.00
2024-02-23T16:15:36.628Z,97112.00
2024-02-23T16:17:11.344Z,97114.00
2024-02-23T16:18:43.871Z,97113.00
2024-02-23T16:20:17.719Z,97109.00
2024-02-23T16:21:50.523Z,97109.00
2024-02-23T16:23:24.485Z,97103.00
2024-02-23T16:24:56.974Z,97105.00
2024-02-23T16:26:35.698Z,97105.00
2024-02-23T16:28:08.379Z,97109.00
2024-02-23T16:29:41.555Z,97109.00
2024-02-23T16:31:14.757Z,97111.00
2024-02-23T16:32:50.508Z,97105.00
2024-02-23T16:34:23.009Z,97095.00
2024-02-23T16:35:57.530Z,97107.00
2024-02-23T16:37:31.021Z,97105.00
2024-02-23T16:39:08.436Z,97105.00
2024-02-23T16:40:42.246Z,97112.00
2024-02-23T16:42:15.716Z,97113.00
2024-02-23T16:43:49.038Z,97111.00
2024-02-23T16:45:24.441Z,97114.00
2024-02-23T16:46:57.659Z,97116.00
2024-02-23T16:48:32.486Z,97117.00
2024-02-23T16:50:05.920Z,97120.00
2024-02-23T16:51:39.267Z,97118.00
2024-02-23T16:53:12.275Z,97122.00
2024-02-23T16:54:45.685Z,97131.00
2024-02-23T16:56:18.877Z,97128.00
2024-02-23T16:57:52.243Z,97125.00
2024-02-23T16:59:25.388Z,97131.00
2024-02-23T17:00:58.830Z,97127.00
2024-02-23T17:02:31.555Z,97134.00
2024-02-23T17:04:06.813Z,97143.00
2024-02-23T17:05:39.653Z,97126.00
2024-02-23T17:07:13.211Z,97135.00
2024-02-23T17:08:45.816Z,97139.00
2024-02-23T17:10:19.013Z,97137.00
2024-02-23T17:11:51.628Z,97134.00
2024-02-23T17:13:26.498Z,97145.00
2024-02-23T17:14:59.886Z,97151.00
2024-02-23T17:16:33.032Z,97146.00
2024-02-23T17:18:06.459Z,97149.00
2024-02-23T17:19:42.076Z,97155.00
2024-02-23T17:21:14.431Z,97151.00
2024-02-23T17:22:48.279Z,97155.00
2024-02-23T17:24:20.679Z,97160.00
2024-02-23T17:25:53.842Z,97161.00
2024-02-23T17:27:27.293Z,97155.00
2024-02-23T17:29:00.503Z,97155.00
2024-02-23T17:30:32.924Z,97155.00
2024-02-23T17:32:07.246Z,97158.00
2024-02-23T17:33:40.307Z,97154.00
2024-02-23T17:35:15.216Z,97167.00
2024-02-23T17:36:47.674Z,97160.00
2024-02-23T17:38:20.985Z,97157.00
2024-02-23T17:39:54.920Z,97160.00
2024-02-23T17:41:28.218Z,97159.00
2024-02-23T17:43:00.663Z,97159.00
2024-02-23T17:44:34.481Z,97158.00
2024-02-23T17:46:09.850Z,97154.00
2024-02-23T17:47:43.135Z,97151.00
2024-02-23T17:49:20.461Z,97157.00
2024-02-23T17:50:55.314Z,97159.00
2024-02-23T17:52:29.876Z,97153.00
2024-02-23T17:54:03.359Z,97153.00
2024-02-23T17:55:35.788Z,97160.00
2024-02-23T17:57:10.281Z,97163.00
2024-02-23T17:58:52.718Z,97162.00
2024-02-23T18:00:26.336Z,97166.00
2024-02-23T18:01:58.843Z,97171.00
2024-02-23T18:03:32.302Z,97169.00
2024-02-23T18:05:06.044Z,97171.00
2024-02-23T18:06:43.195Z,97170.00
2024-02-23T18:08:16.897Z,97164.00
2024-02-23T18:09:50.868Z,97165.00
2024-02-23T18:11:23.373Z,97173.00
2024-02-23T18:12:59.194Z,97172.00
2024-02-23T18:14:31.751Z,97173.00
2024-02-23T18:16:07.891Z,97174.00
2024-02-23T18:17:40.433Z,97161.00
2024-02-23T18:19:14.351Z,97172.00
2024-02-23T18:20:46.980Z,97158.00
2024-02-23T18:22:22.902Z,97153.00
2024-02-23T18:23:55.666Z,97166.00
2024-02-23T18:25:29.093Z,97165.00
2024-02-23T18:27:01.350Z,97171.00
2024-02-23T18:28:34.821Z,97168.00